createdAt,value
2022-11-07T00:02:03.251Z,100363.41
2022-11-07T00:04:32.447Z,100363.56
2022-11-07T00:07:00.799Z,100365.56
2022-11-07T00:09:28.951Z,100360.16
2022-11-07T00:11:56.987Z,100359.56
2022-11-07T00:14:26.306Z,100369.16
2022-11-07T00:16:54.493Z,100357.78
2022-11-07T00:19:23.215Z,100367.72
2022-11-07T00:21:51.447Z,100358.06
2022-11-07T00:24:19.909Z,100364.28
2022-11-07T00:26:48.751Z,100372.72
2022-11-07T00:29:18.201Z,100357.47
2022-11-07T00:31:48.549Z,100374.56
2022-11-07T00:34:16.775Z,100368.47
2022-11-07T00:36:44.692Z,100371.44
2022-11-07T00:39:12.979Z,100375.16
2022-11-07T00:41:40.914Z,100383.25
2022-11-07T00:44:08.877Z,100376.84
2022-11-07T00:46:36.795Z,100380.28
2022-11-07T00:49:06.097Z,100387.00
2022-11-07T00:51:34.034Z,100387.72
2022-11-07T00:54:03.340Z,100395.81
2022-11-07T00:56:31.287Z,100394.69
2022-11-07T00:59:00.479Z,100398.53
2022-11-07T01:01:30.278Z,100400.97
2022-11-07T01:04:16.330Z,100401.22
2022-11-07T01:06:46.971Z,100395.25
2022-11-07T01:09:17.642Z,100394.69
2022-11-07T01:11:45.895Z,100407.25
2022-11-07T01:14:14.799Z,100395.84
2022-11-07T01:16:42.823Z,100397.28
2022-11-07T01:19:11.436Z,100403.13
2022-11-07T01:21:40.310Z,100390.44
2022-11-07T01:24:11.735Z,100397.56
2022-11-07T01:26:40.597Z,100394.28
2022-11-07T01:29:08.763Z,100397.84
2022-11-07T01:31:36.728Z,100401.84
2022-11-07T01:34:04.688Z,100396.16
2022-11-07T01:36:32.612Z,100402.53
2022-11-07T01:39:00.808Z,100402.69
2022-11-07T01:41:31.983Z,100393.28
2022-11-07T01:44:01.907Z,100387.72
2022-11-07T01:46:32.605Z,100391.44
2022-11-07T01:49:05.511Z,100387.31
2022-11-07T01:51:35.733Z,100396.31
2022-11-07T01:54:04.556Z,100392.59
2022-11-07T01:56:36.024Z,100390.59
2022-11-07T01:59:04.680Z,100398.34
2022-11-07T02:01:32.782Z,100397.59
2022-11-07T02:04:01.607Z,100390.38
2022-11-07T02:06:36.031Z,100390.34
2022-11-07T02:09:04.039Z,100396.94
2022-11-07T02:11:33.533Z,100395.06
2022-11-07T02:14:01.535Z,100404.19
2022-11-07T02:16:29.691Z,100402.47
2022-11-07T02:18:57.893Z,100400.06
2022-11-07T02:21:32.895Z,100397.63
2022-11-07T02:24:05.992Z,100392.22
2022-11-07T02:26:35.768Z,100394.22
2022-11-07T02:29:05.042Z,100400.78
2022-11-07T02:31:32.953Z,100397.06
2022-11-07T02:34:00.864Z,100404.06
2022-11-07T02:36:29.112Z,100403.91
2022-11-07T02:38:59.192Z,100410.03
2022-11-07T02:41:28.544Z,100397.63
2022-11-07T02:43:59.888Z,100399.78
2022-11-07T02:46:29.377Z,100395.94
2022-11-07T02:48:59.572Z,100399.34
2022-11-07T02:51:27.534Z,100395.38
2022-11-07T02:53:55.776Z,100398.91
2022-11-07T02:56:24.084Z,100390.38
2022-11-07T02:58:53.486Z,100389.94
2022-11-07T03:01:23.300Z,100397.22
2022-11-07T03:03:52.048Z,100404.63
2022-11-07T03:06:21.937Z,100408.47
2022-11-07T03:08:50.077Z,100408.19
2022-11-07T03:11:19.795Z,100397.66
2022-11-07T03:13:48.402Z,100409.31
2022-11-07T03:16:17.227Z,100404.19
2022-11-07T03:18:46.520Z,100412.91
2022-11-07T03:21:14.443Z,100405.19
2022-11-07T03:23:42.441Z,100408.59
2022-11-07T03:26:10.356Z,100406.06
2022-11-07T03:28:38.235Z,100407.47
2022-11-07T03:31:06.698Z,100410.63
2022-11-07T03:33:34.584Z,100414.44
2022-11-07T03:36:03.892Z,100417.84
2022-11-07T03:38:31.767Z,100420.03
2022-11-07T03:40:59.686Z,100428.00
2022-11-07T03:43:27.580Z,100428.16
2022-11-07T03:45:55.512Z,100418.59
2022-11-07T03:48:23.396Z,100425.00
2022-11-07T03:50:51.273Z,100426.72
2022-11-07T03:53:25.006Z,100423.16
2022-11-07T03:55:55.770Z,100424.00
2022-11-07T03:58:24.184Z,100420.72
2022-11-07T04:00:52.113Z,100417.44
2022-11-07T04:03:20.072Z,100419.03
2022-11-07T04:05:47.968Z,100421.28
2022-11-07T04:08:15.859Z,100426.84
2022-11-07T04:10:45.182Z,100432.09
2022-11-07T04:13:30.225Z,100431.84
2022-11-07T04:16:23.969Z,100424.28
2022-11-07T04:18:51.872Z,100416.44
2022-11-07T04:21:19.830Z,100421.31
2022-11-07T04:23:47.699Z,100425.13
2022-11-07T04:26:35.016Z,100427.41
2022-11-07T04:29:02.887Z,100421.88
2022-11-07T04:31:30.783Z,100429.56
2022-11-07T04:33:58.772Z,100432.41
2022-11-07T04:36:26.648Z,100432.56
2022-11-07T04:38:54.535Z,100429.97
2022-11-07T04:41:25.059Z,100427.88
2022-11-07T04:43:53.006Z,100433.13
2022-11-07T04:46:23.317Z,100442.81
2022-11-07T04:48:51.325Z,100442.66
2022-11-07T04:51:22.185Z,100450.66
2022-11-07T04:53:50.139Z,100448.53
2022-11-07T04:56:18.112Z,100450.25
2022-11-07T04:58:47.469Z,100438.53
2022-11-07T05:01:15.358Z,100449.38
2022-11-07T05:03:43.441Z,100452.25
2022-11-07T05:06:13.725Z,100447.22
2022-11-07T05:08:41.633Z,100456.66
2022-11-07T05:11:09.537Z,100439.84
2022-11-07T05:13:37.444Z,100444.97
2022-11-07T05:16:07.250Z,100447.22
2022-11-07T05:18:35.164Z,100442.56
2022-11-07T05:21:03.090Z,100453.66
2022-11-07T05:23:30.969Z,100453.94
2022-11-07T05:25:58.859Z,100442.69
2022-11-07T05:28:36.921Z,100447.94
2022-11-07T05:31:08.920Z,100448.09
2022-11-07T05:33:37.160Z,100445.97
2022-11-07T05:36:13.099Z,100449.94
2022-11-07T05:38:42.056Z,100457.22
2022-11-07T05:41:09.970Z,100453.94
2022-11-07T05:43:38.674Z,100455.06
2022-11-07T05:46:08.623Z,100458.22
2022-11-07T05:48:36.818Z,100455.06
2022-11-07T05:51:04.925Z,100458.38
2022-11-07T05:53:33.365Z,100468.19
2022-11-07T05:56:01.288Z,100466.91
2022-11-07T05:58:29.223Z,100469.75
2022-11-07T06:01:01.976Z,100465.78
2022-11-07T06:03:31.310Z,100465.91
2022-11-07T06:05:59.327Z,100466.34
2022-11-07T06:08:27.255Z,100464.19
2022-11-07T06:10:55.201Z,100475.75
2022-11-07T06:13:23.113Z,100472.44
2022-11-07T06:15:50.990Z,100476.72
2022-11-07T06:18:20.742Z,100471.03
2022-11-07T06:20:50.382Z,100476.72
2022-11-07T06:23:18.910Z,100478.44
2022-11-07T06:25:47.044Z,100476.44
2022-11-07T06:28:15.935Z,100482.56
2022-11-07T06:30:44.088Z,100484.56
2022-11-07T06:33:13.792Z,100488.53
2022-11-07T06:35:42.035Z,100497.09
2022-11-07T06:38:12.791Z,100496.81
2022-11-07T06:40:41.287Z,100498.28
2022-11-07T06:43:10.482Z,100500.38
2022-11-07T06:45:38.719Z,100496.28
2022-11-07T06:48:07.345Z,100509.09
2022-11-07T06:50:35.842Z,100513.66
2022-11-07T06:53:04.512Z,100520.06
2022-11-07T06:55:34.680Z,100515.38
2022-11-07T06:58:03.092Z,100510.41
2022-11-07T07:00:32.362Z,100524.06
2022-11-07T07:03:00.601Z,100524.66
2022-11-07T07:05:28.651Z,100526.97
2022-11-07T07:07:56.560Z,100525.78
2022-11-07T07:10:25.294Z,100525.66
2022-11-07T07:12:56.743Z,100530.66
2022-11-07T07:15:24.798Z,100526.97
2022-11-07T07:17:52.688Z,100526.81
2022-11-07T07:20:20.599Z,100533.63
2022-11-07T07:22:53.848Z,100535.75
2022-11-07T07:25:26.163Z,100538.19
2022-11-07T07:27:55.522Z,100534.94
2022-11-07T07:30:23.432Z,100538.94
2022-11-07T07:32:51.536Z,100534.50
2022-11-07T07:35:19.429Z,100536.50
2022-11-07T07:37:50.785Z,100540.81
2022-11-07T07:40:19.348Z,100532.22
2022-11-07T07:42:47.326Z,100546.22
2022-11-07T07:45:17.496Z,100542.63
2022-11-07T07:47:45.432Z,100547.66
2022-11-07T07:50:13.645Z,100553.19
2022-11-07T07:52:41.927Z,100554.06
2022-11-07T07:55:11.436Z,100551.94
2022-11-07T07:57:41.185Z,100558.78
2022-11-07T08:00:10.532Z,100562.31
2022-11-07T08:02:43.634Z,100559.03
2022-11-07T08:05:12.731Z,100564.06
2022-11-07T08:07:46.740Z,100556.63
2022-11-07T08:10:40.141Z,100563.34
2022-11-07T08:13:02.819Z,100562.03
2022-11-07T08:15:30.732Z,100564.03
2022-11-07T08:18:03.546Z,100563.63
2022-11-07T08:20:31.883Z,100570.88
2022-11-07T08:23:03.625Z,100574.16
2022-11-07T08:25:31.772Z,100571.16
2022-11-07T08:27:59.920Z,100577.31
2022-11-07T08:30:28.391Z,100578.88
2022-11-07T08:32:56.658Z,100579.03
2022-11-07T08:35:25.964Z,100573.84
2022-11-07T08:37:54.114Z,100584.72
2022-11-07T08:40:22.148Z,100585.84
2022-11-07T08:42:50.378Z,100590.13
2022-11-07T08:45:19.116Z,100594.44
2022-11-07T08:47:47.014Z,100584.28
2022-11-07T08:50:15.195Z,100583.13
2022-11-07T08:52:44.528Z,100591.50
2022-11-07T08:55:12.464Z,100587.59
2022-11-07T08:57:40.334Z,100595.31
2022-11-07T09:00:09.509Z,100584.41
2022-11-07T09:05:25.317Z,100591.75
2022-11-07T09:07:54.571Z,100589.97
2022-11-07T09:10:22.461Z,100577.44
2022-11-07T09:12:51.764Z,100582.75
2022-11-07T09:15:20.310Z,100578.44
2022-11-07T09:17:48.954Z,100578.13
2022-11-07T09:20:16.980Z,100582.00
2022-11-07T09:22:44.949Z,100584.56
2022-11-07T09:25:14.348Z,100597.69
2022-11-07T09:27:42.225Z,100590.34
2022-11-07T09:30:11.272Z,100601.47
2022-11-07T09:32:44.903Z,100601.84
2022-11-07T09:35:13.690Z,100591.97
2022-11-07T09:37:42.197Z,100607.72
2022-11-07T09:40:23.606Z,100612.28
2022-11-07T09:42:59.036Z,100617.50
2022-11-07T09:45:27.084Z,100625.09
2022-11-07T09:48:00.436Z,100611.34
2022-11-07T09:50:30.880Z,100615.94
2022-11-07T09:53:00.291Z,100623.53
2022-11-07T09:55:32.241Z,100631.28
2022-11-07T09:58:02.269Z,100632.72
2022-11-07T10:00:31.861Z,100636.75
2022-11-07T10:03:01.865Z,100633.94
2022-11-07T10:05:38.707Z,100642.66
2022-11-07T10:08:11.205Z,100646.25
2022-11-07T10:10:45.433Z,100648.50
2022-11-07T10:13:47.417Z,100652.94
2022-11-07T10:16:19.992Z,100657.53
2022-11-07T10:18:56.968Z,100651.09
2022-11-07T10:21:38.571Z,100662.22
2022-11-07T10:24:23.913Z,100650.91
2022-11-07T10:26:53.190Z,100654.63
2022-11-07T10:29:23.653Z,100668.03
2022-11-07T10:31:56.169Z,100657.28
2022-11-07T10:34:29.841Z,100651.16
2022-11-07T10:36:57.712Z,100655.38
2022-11-07T10:39:25.610Z,100651.38
2022-11-07T10:42:01.450Z,100652.94
2022-11-07T10:44:30.725Z,100648.59
2022-11-07T10:46:58.758Z,100658.84
2022-11-07T10:49:28.152Z,100653.41
2022-11-07T10:51:56.937Z,100653.97
2022-11-07T10:54:29.283Z,100647.13
2022-11-07T10:57:03.633Z,100647.69
2022-11-07T10:59:36.434Z,100656.84
2022-11-07T11:02:19.455Z,100641.13
2022-11-07T11:04:51.130Z,100645.09
2022-11-07T11:07:22.957Z,100643.41
2022-11-07T11:09:55.720Z,100651.41
2022-11-07T11:12:27.478Z,100643.53
2022-11-07T11:15:07.323Z,100649.84
2022-11-07T11:17:35.641Z,100653.31
2022-11-07T11:20:03.837Z,100650.59
2022-11-07T11:22:31.821Z,100649.91
2022-11-07T11:25:01.053Z,100655.03
2022-11-07T11:27:32.724Z,100651.94
2022-11-07T11:30:06.553Z,100639.03
2022-11-07T11:32:38.513Z,100639.03
2022-11-07T11:35:14.732Z,100648.19
2022-11-07T11:37:45.280Z,100646.88
2022-11-07T11:40:17.993Z,100639.56
2022-11-07T11:42:54.538Z,100648.00
2022-11-07T11:45:28.313Z,100646.22
2022-11-07T11:48:01.617Z,100652.38
2022-11-07T11:50:35.705Z,100651.06
2022-11-07T11:53:03.643Z,100656.66
2022-11-07T11:55:37.802Z,100652.22
2022-11-07T11:58:16.468Z,100646.34
2022-11-07T12:00:49.570Z,100657.75
2022-11-07T12:03:28.449Z,100651.31
2022-11-07T12:06:13.021Z,100658.63
2022-11-07T12:09:17.020Z,100653.56
2022-11-07T12:12:02.834Z,100661.44
2022-11-07T12:14:58.211Z,100664.72
2022-11-07T12:17:29.773Z,100660.13
2022-11-07T12:20:01.887Z,100658.63
2022-11-07T12:22:39.893Z,100663.22
2022-11-07T12:25:11.028Z,100663.94
2022-11-07T12:27:44.149Z,100658.78
2022-11-07T12:30:20.417Z,100672.53
2022-11-07T12:32:58.954Z,100673.56
2022-11-07T12:35:38.377Z,100677.88
2022-11-07T12:38:23.625Z,100672.38
2022-11-07T12:40:58.973Z,100666.50
2022-11-07T12:43:38.348Z,100672.22
2022-11-07T12:46:11.738Z,100666.31
2022-11-07T12:49:12.342Z,100668.59
2022-11-07T12:51:50.312Z,100663.97
2022-11-07T12:54:34.063Z,100670.84
2022-11-07T12:57:04.013Z,100673.09
2022-11-07T12:59:33.843Z,100660.66
2022-11-07T13:02:08.051Z,100658.09
2022-11-07T13:04:38.628Z,100658.53
2022-11-07T13:07:12.264Z,100666.56
2022-11-07T13:09:46.891Z,100668.91
2022-11-07T13:12:22.975Z,100674.94
2022-11-07T13:14:51.443Z,100672.50
2022-11-07T13:17:24.131Z,100682.31
2022-11-07T13:20:02.282Z,100675.56
2022-11-07T13:22:35.391Z,100677.03
2022-11-07T13:25:24.689Z,100681.22
2022-11-07T13:28:31.233Z,100677.09
2022-11-07T13:31:06.563Z,100686.63
2022-11-07T13:33:37.395Z,100678.97
2022-11-07T13:36:15.533Z,100678.97
2022-11-07T13:38:49.501Z,100690.00
2022-11-07T13:41:18.042Z,100679.13
2022-11-07T13:43:49.853Z,100686.75
2022-11-07T13:46:24.530Z,100685.47
2022-11-07T13:48:55.456Z,100681.06
2022-11-07T13:51:27.837Z,100685.34
2022-11-07T13:54:06.604Z,100684.63
2022-11-07T13:56:37.994Z,100686.13
2022-11-07T13:59:07.221Z,100691.16
2022-11-07T14:01:43.739Z,100691.03
2022-11-07T14:04:17.938Z,100694.97
2022-11-07T14:06:45.896Z,100685.13
2022-11-07T14:09:16.477Z,100683.81
2022-11-07T14:11:44.684Z,100689.25
2022-11-07T14:14:13.030Z,100680.25
2022-11-07T14:16:41.732Z,100680.41
2022-11-07T14:19:16.845Z,100683.28
2022-11-07T14:21:46.697Z,100680.16
2022-11-07T14:24:23.677Z,100686.44
2022-11-07T14:27:02.916Z,100686.44
2022-11-07T14:29:30.972Z,100688.19
2022-11-07T14:32:00.390Z,100688.19
2022-11-07T14:34:30.069Z,100690.19
2022-11-07T14:36:59.379Z,100690.06
2022-11-07T14:39:29.613Z,100691.47
2022-11-07T14:41:59.639Z,100683.16
2022-11-07T14:44:47.572Z,100686.59
2022-11-07T14:47:21.951Z,100687.84
2022-11-07T14:49:51.653Z,100692.88
2022-11-07T14:52:21.856Z,100683.00
2022-11-07T14:54:51.073Z,100687.88
2022-11-07T14:57:19.344Z,100683.31
2022-11-07T14:59:47.348Z,100677.56
2022-11-07T15:02:25.992Z,100683.72
2022-11-07T15:05:03.356Z,100690.41
2022-11-07T15:07:47.364Z,100690.97
2022-11-07T15:10:21.964Z,100692.13
2022-11-07T15:12:54.375Z,100694.44
2022-11-07T15:15:23.865Z,100692.72
2022-11-07T15:17:52.945Z,100704.47
2022-11-07T15:20:32.274Z,100703.00
2022-11-07T15:23:00.596Z,100695.31
2022-11-07T15:25:30.412Z,100695.16
2022-11-07T15:27:58.290Z,100705.56
2022-11-07T15:30:29.840Z,100707.56
2022-11-07T15:32:58.170Z,100710.31
2022-11-07T15:35:44.712Z,100717.75
2022-11-07T15:38:20.789Z,100719.72
2022-11-07T15:40:49.341Z,100711.56
2022-11-07T15:43:17.254Z,100716.31
2022-11-07T15:45:45.671Z,100720.31
2022-11-07T15:48:17.475Z,100726.03
2022-11-07T15:50:48.613Z,100724.25
2022-11-07T15:53:19.094Z,100721.84
2022-11-07T15:55:47.084Z,100732.41
2022-11-07T15:58:16.307Z,100730.13
2022-11-07T16:00:44.336Z,100738.97
2022-11-07T16:03:16.230Z,100724.81
2022-11-07T16:05:48.092Z,100728.13
2022-11-07T16:08:18.018Z,100727.53
2022-11-07T16:10:48.256Z,100725.50
2022-11-07T16:13:16.401Z,100719.25
2022-11-07T16:15:46.354Z,100729.28
2022-11-07T16:18:17.032Z,100741.72
2022-11-07T16:20:47.254Z,100731.47
2022-11-07T16:23:15.385Z,100735.63
2022-11-07T16:25:44.323Z,100736.72
2022-11-07T16:28:23.932Z,100740.59
2022-11-07T16:30:52.469Z,100737.03
2022-11-07T16:33:20.791Z,100740.59
2022-11-07T16:35:51.771Z,100735.88
2022-11-07T16:38:20.767Z,100744.03
2022-11-07T16:40:48.730Z,100746.31
2022-11-07T16:43:17.011Z,100746.91
2022-11-07T16:45:47.348Z,100757.63
2022-11-07T16:48:21.968Z,100760.50
2022-11-07T16:50:51.800Z,100760.03
2022-11-07T16:53:20.305Z,100760.19
2022-11-07T16:55:53.487Z,100757.19
2022-11-07T16:58:26.999Z,100758.03
2022-11-07T17:00:56.478Z,100753.44
2022-11-07T17:03:24.793Z,100764.47
2022-11-07T17:05:55.170Z,100762.31
2022-11-07T17:08:24.841Z,100759.03
2022-11-07T17:10:52.783Z,100765.94
2022-11-07T17:13:22.853Z,100767.50
2022-11-07T17:15:51.234Z,100773.50
2022-11-07T17:18:20.849Z,100771.69
2022-11-07T17:20:51.434Z,100777.66
2022-11-07T17:23:26.882Z,100779.34
2022-11-07T17:25:59.695Z,100786.53
2022-11-07T17:28:27.703Z,100774.38
2022-11-07T17:30:55.635Z,100777.97
2022-11-07T17:33:23.555Z,100782.97
2022-11-07T17:35:55.489Z,100780.69
2022-11-07T17:38:25.802Z,100779.41
2022-11-07T17:40:53.829Z,100778.25
2022-11-07T17:43:21.859Z,100778.25
2022-11-07T17:45:49.780Z,100778.53
2022-11-07T17:48:18.049Z,100775.97
2022-11-07T17:50:46.178Z,100772.97
2022-11-07T17:53:14.161Z,100774.97
2022-11-07T17:55:43.594Z,100775.53
2022-11-07T17:58:11.548Z,100777.56
2022-11-07T18:00:39.636Z,100770.69
2022-11-07T18:03:08.044Z,100775.41
2022-11-07T18:05:36.183Z,100779.56
2022-11-07T18:08:04.377Z,100770.56
2022-11-07T18:10:32.878Z,100779.03
2022-11-07T18:13:02.286Z,100772.84
2022-11-07T18:15:30.394Z,100769.56
2022-11-07T18:17:58.534Z,100779.41
2022-11-07T18:20:27.770Z,100778.53
2022-11-07T18:22:55.662Z,100777.38
2022-11-07T18:25:23.639Z,100775.53
2022-11-07T18:27:51.708Z,100783.53
2022-11-07T18:30:21.048Z,100776.63
2022-11-07T18:32:48.972Z,100771.63
2022-11-07T18:35:16.968Z,100772.22
2022-11-07T18:37:44.888Z,100775.91
2022-11-07T18:40:13.172Z,100782.09
2022-11-07T18:42:44.321Z,100781.59
2022-11-07T18:45:12.381Z,100778.47
2022-11-07T18:47:41.709Z,100782.06
2022-11-07T18:50:11.206Z,100780.91
2022-11-07T18:52:39.254Z,100781.78
2022-11-07T18:55:07.771Z,100778.22
2022-11-07T18:57:35.645Z,100761.91
2022-11-07T19:00:09.241Z,100782.34
2022-11-07T19:02:42.505Z,100780.50
2022-11-07T19:05:10.631Z,100785.22
2022-11-07T19:07:39.843Z,100791.50
2022-11-07T19:10:08.638Z,100779.78
2022-11-07T19:12:36.785Z,100784.78
2022-11-07T19:15:05.191Z,100781.25
2022-11-07T19:17:33.088Z,100781.53
2022-11-07T19:20:02.433Z,100780.16
2022-11-07T19:22:31.384Z,100777.25
2022-11-07T19:24:59.331Z,100785.28
2022-11-07T19:27:29.286Z,100789.44
2022-11-07T19:29:57.852Z,100787.31
2022-11-07T19:32:25.876Z,100786.31
2022-11-07T19:34:53.786Z,100785.16
2022-11-07T19:37:23.097Z,100791.63
2022-11-07T19:39:51.005Z,100789.19
2022-11-07T19:42:19.093Z,100784.91
2022-11-07T19:44:50.567Z,100785.19
2022-11-07T19:47:20.977Z,100780.22
2022-11-07T19:49:48.940Z,100784.78
2022-11-07T19:52:16.898Z,100779.63
2022-11-07T19:54:47.612Z,100778.34
2022-11-07T19:57:16.909Z,100773.47
2022-11-07T19:59:44.916Z,100776.06
2022-11-07T20:05:01.633Z,100785.91
2022-11-07T20:07:29.585Z,100782.06
2022-11-07T20:10:01.305Z,100784.91
2022-11-07T20:12:29.325Z,100779.91
2022-11-07T20:14:57.372Z,100784.63
2022-11-07T20:17:25.252Z,100777.91
2022-11-07T20:19:53.149Z,100777.00
2022-11-07T20:22:21.083Z,100788.50
2022-11-07T20:24:48.994Z,100787.34
2022-11-07T20:27:18.306Z,100788.91
2022-11-07T20:29:46.213Z,100791.63
2022-11-07T20:32:14.193Z,100788.03
2022-11-07T20:34:42.110Z,100784.06
2022-11-07T20:37:10.019Z,100786.63
2022-11-07T20:39:42.448Z,100793.06
2022-11-07T20:42:10.363Z,100803.06
2022-11-07T20:44:40.666Z,100796.34
2022-11-07T20:47:09.320Z,100798.91
2022-11-07T20:49:38.871Z,100789.47
2022-11-07T20:52:07.995Z,100791.63
2022-11-07T20:54:35.975Z,100789.03
2022-11-07T20:57:04.093Z,100788.75
2022-11-07T20:59:32.667Z,100801.63
2022-11-07T21:02:03.876Z,100801.34
2022-11-07T21:04:55.898Z,100791.34
2022-11-07T21:07:23.740Z,100787.47
2022-11-07T21:09:51.637Z,100787.06
2022-11-07T21:12:19.532Z,100784.34
2022-11-07T21:14:47.445Z,100794.47
2022-11-07T21:17:16.838Z,100785.78
2022-11-07T21:19:44.758Z,100794.06
2022-11-07T21:22:12.734Z,100784.75
2022-11-07T21:24:40.653Z,100787.06
2022-11-07T21:27:08.582Z,100788.78
2022-11-07T21:29:36.460Z,100781.19
2022-11-07T21:32:06.845Z,100780.91
2022-11-07T21:34:37.252Z,100785.91
2022-11-07T21:37:05.349Z,100792.50
2022-11-07T21:39:33.236Z,100796.19
2022-11-07T21:42:01.320Z,100787.63
2022-11-07T21:44:29.223Z,100786.22
2022-11-07T21:46:57.161Z,100777.75
2022-11-07T21:49:25.096Z,100782.91
2022-11-07T21:51:54.628Z,100787.47
2022-11-07T21:54:22.509Z,100782.19
2022-11-07T21:56:50.420Z,100788.63
2022-11-07T21:59:19.600Z,100781.03
2022-11-07T22:01:48.830Z,100783.59
2022-11-07T22:04:17.110Z,100783.59
2022-11-07T22:06:46.548Z,100785.78
2022-11-07T22:09:17.692Z,100785.91
2022-11-07T22:11:45.658Z,100784.75
2022-11-07T22:14:15.127Z,100784.16
2022-11-07T22:16:43.069Z,100785.00
2022-11-07T22:19:12.745Z,100787.31
2022-11-07T22:21:41.171Z,100779.00
2022-11-07T22:24:09.710Z,100780.41
2022-11-07T22:26:39.041Z,100777.81
2022-11-07T22:29:06.907Z,100776.50
2022-11-07T22:31:35.127Z,100783.22
2022-11-07T22:34:03.176Z,100782.81
2022-11-07T22:36:31.272Z,100783.34
2022-11-07T22:38:59.735Z,100787.94
2022-11-07T22:41:29.241Z,100780.81
2022-11-07T22:43:59.300Z,100785.06
2022-11-07T22:46:28.579Z,100789.81
2022-11-07T22:48:56.989Z,100779.34
2022-11-07T22:51:27.651Z,100778.31
2022-11-07T22:53:59.574Z,100783.06
2022-11-07T22:56:27.696Z,100783.75
2022-11-07T22:58:55.864Z,100776.75
2022-11-07T23:01:26.807Z,100787.63
2022-11-07T23:03:55.397Z,100785.78
2022-11-07T23:06:23.919Z,100782.63
2022-11-07T23:08:52.429Z,100788.63
2022-11-07T23:14:12.566Z,100779.59
2022-11-07T23:16:45.169Z,100788.47
2022-11-07T23:19:15.043Z,100784.31
2022-11-07T23:21:43.305Z,100780.03
2022-11-07T23:24:11.653Z,100780.03
2022-11-07T23:26:40.096Z,100781.75
2022-11-07T23:29:11.380Z,100777.88
2022-11-07T23:31:41.319Z,100786.59
2022-11-07T23:34:09.580Z,100779.84
2022-11-07T23:36:37.783Z,100780.72
2022-11-07T23:39:06.850Z,100789.09
2022-11-07T23:41:35.032Z,100785.00
2022-11-07T23:44:03.269Z,100785.69
2022-11-07T23:46:48.645Z,100783.38
2022-11-07T23:49:50.192Z,100779.69
2022-11-07T23:52:18.297Z,100782.56
2022-11-07T23:55:03.679Z,100778.00
2022-11-07T23:57:34.703Z,100780.53
